sensor_id;sensor_type;location;lat;lon;timestamp;temperature;humidity
6206;DHT22;3136;48.788;9.772;2024-01-30T00:00:11;-1.20;1.00
6206;DHT22;3136;48.788;9.772;2024-01-30T00:02:37;-1.20;1.00
6206;DHT22;3136;48.788;9.772;2024-01-30T00:05:03;-1.20;1.00
6206;DHT22;3136;48.788;9.772;2024-01-30T00:07:29;-1.30;1.00
6206;DHT22;3136;48.788;9.772;2024-01-30T00:09:54;-1.30;1.00
6206;DHT22;3136;48.788;9.772;2024-01-30T00:12:20;-1.30;1.00
6206;DHT22;3136;48.788;9.772;2024-01-30T00:14:46;-1.30;1.00
6206;DHT22;3136;48.788;9.772;2024-01-30T00:17:12;-1.30;1.00
6206;DHT22;3136;48.788;9.772;2024-01-30T00:19:37;-1.30;1.00
6206;DHT22;3136;48.788;9.772;2024-01-30T00:22:03;-1.30;1.00
6206;DHT22;3136;48.788;9.772;2024-01-30T00:24:28;-1.30;1.00
6206;DHT22;3136;48.788;9.772;2024-01-30T00:26:54;-1.30;1.00
6206;DHT22;3136;48.788;9.772;2024-01-30T00:29:20;-1.30;1.00
6206;DHT22;3136;48.788;9.772;2024-01-30T00:31:47;-1.40;1.00
6206;DHT22;3136;48.788;9.772;2024-01-30T00:34:12;-1.40;1.00
6206;DHT22;3136;48.788;9.772;2024-01-30T00:36:38;-1.40;1.00
6206;DHT22;3136;48.788;9.772;2024-01-30T00:39:03;-1.40;1.00
6206;DHT22;3136;48.788;9.772;2024-01-30T00:41:34;-1.40;1.00
6206;DHT22;3136;48.788;9.772;2024-01-30T00:44:00;-1.40;1.00
6206;DHT22;3136;48.788;9.772;2024-01-30T00:46:25;-1.40;1.00
6206;DHT22;3136;48.788;9.772;2024-01-30T00:48:51;-1.40;1.00
6206;DHT22;3136;48.788;9.772;2024-01-30T00:51:16;-1.40;1.00
6206;DHT22;3136;48.788;9.772;2024-01-30T00:53:42;-1.40;1.00
6206;DHT22;3136;48.788;9.772;2024-01-30T00:56:07;-1.40;1.00
6206;DHT22;3136;48.788;9.772;2024-01-30T00:58:34;-1.40;1.00
6206;DHT22;3136;48.788;9.772;2024-01-30T01:01:00;-1.40;1.00
6206;DHT22;3136;48.788;9.772;2024-01-30T01:03:25;-1.50;1.00
6206;DHT22;3136;48.788;9.772;2024-01-30T01:05:51;-1.50;1.00
6206;DHT22;3136;48.788;9.772;2024-01-30T01:08:16;-1.50;1.00
6206;DHT22;3136;48.788;9.772;2024-01-30T01:10:42;-1.50;1.00
6206;DHT22;3136;48.788;9.772;2024-01-30T01:13:07;-1.50;1.00
6206;DHT22;3136;48.788;9.772;2024-01-30T01:15:33;-1.50;1.00
6206;DHT22;3136;48.788;9.772;2024-01-30T01:17:58;-1.50;1.00
6206;DHT22;3136;48.788;9.772;2024-01-30T01:20:24;-1.50;1.00
6206;DHT22;3136;48.788;9.772;2024-01-30T01:22:49;-1.50;1.00
6206;DHT22;3136;48.788;9.772;2024-01-30T01:25:15;-1.50;1.00
6206;DHT22;3136;48.788;9.772;2024-01-30T01:27:41;-1.40;1.00
6206;DHT22;3136;48.788;9.772;2024-01-30T01:30:09;-1.50;1.00
6206;DHT22;3136;48.788;9.772;2024-01-30T01:32:36;-1.40;1.00
6206;DHT22;3136;48.788;9.772;2024-01-30T01:35:02;-1.40;1.00
6206;DHT22;3136;48.788;9.772;2024-01-30T01:37:28;-1.40;1.00
6206;DHT22;3136;48.788;9.772;2024-01-30T01:39:53;-1.40;1.00
6206;DHT22;3136;48.788;9.772;2024-01-30T01:42:19;-1.40;1.00
6206;DHT22;3136;48.788;9.772;2024-01-30T01:44:44;-1.40;1.00
6206;DHT22;3136;48.788;9.772;2024-01-30T01:47:10;-1.50;1.00
6206;DHT22;3136;48.788;9.772;2024-01-30T01:49:36;-1.50;1.00
6206;DHT22;3136;48.788;9.772;2024-01-30T01:52:01;-1.50;1.00
6206;DHT22;3136;48.788;9.772;2024-01-30T01:54:28;-1.50;1.00
6206;DHT22;3136;48.788;9.772;2024-01-30T01:56:54;-1.50;1.00
6206;DHT22;3136;48.788;9.772;2024-01-30T01:59:21;-1.50;1.00
6206;DHT22;3136;48.788;9.772;2024-01-30T02:01:47;-1.50;1.00
6206;DHT22;3136;48.788;9.772;2024-01-30T02:04:15;-1.50;1.00
6206;DHT22;3136;48.788;9.772;2024-01-30T02:06:41;-1.50;1.00
6206;DHT22;3136;48.788;9.772;2024-01-30T02:09:07;-1.40;1.00
6206;DHT22;3136;48.788;9.772;2024-01-30T02:11:34;-1.50;1.00
6206;DHT22;3136;48.788;9.772;2024-01-30T02:14:04;-1.40;1.00
6206;DHT22;3136;48.788;9.772;2024-01-30T02:16:29;-1.40;1.00
6206;DHT22;3136;48.788;9.772;2024-01-30T02:18:55;-1.50;1.00
6206;DHT22;3136;48.788;9.772;2024-01-30T02:21:21;-1.40;1.00
6206;DHT22;3136;48.788;9.772;2024-01-30T02:23:47;-1.50;1.00
6206;DHT22;3136;48.788;9.772;2024-01-30T02:26:13;-1.50;1.00
6206;DHT22;3136;48.788;9.772;2024-01-30T02:28:39;-1.50;1.00
6206;DHT22;3136;48.788;9.772;2024-01-30T02:31:05;-1.50;1.00
6206;DHT22;3136;48.788;9.772;2024-01-30T02:33:30;-1.50;1.00
6206;DHT22;3136;48.788;9.772;2024-01-30T02:35:56;-1.50;1.00
6206;DHT22;3136;48.788;9.772;2024-01-30T02:38:22;-1.50;1.00
6206;DHT22;3136;48.788;9.772;2024-01-30T02:40:49;-1.50;1.00
6206;DHT22;3136;48.788;9.772;2024-01-30T02:43:15;-2.20;1.00
6206;DHT22;3136;48.788;9.772;2024-01-30T02:45:41;-1.50;1.00
6206;DHT22;3136;48.788;9.772;2024-01-30T02:48:07;-1.50;1.00
6206;DHT22;3136;48.788;9.772;2024-01-30T02:50:32;-1.50;1.00
6206;DHT22;3136;48.788;9.772;2024-01-30T02:52:58;-1.50;1.00
6206;DHT22;3136;48.788;9.772;2024-01-30T02:55:23;-1.50;1.00
6206;DHT22;3136;48.788;9.772;2024-01-30T02:57:49;-1.50;1.00
6206;DHT22;3136;48.788;9.772;2024-01-30T03:00:14;-1.50;1.00
6206;DHT22;3136;48.788;9.772;2024-01-30T03:02:40;-1.50;1.00
6206;DHT22;3136;48.788;9.772;2024-01-30T03:05:06;-1.60;1.00
6206;DHT22;3136;48.788;9.772;2024-01-30T03:07:33;-1.60;1.00
6206;DHT22;3136;48.788;9.772;2024-01-30T03:09:58;-1.60;1.00
6206;DHT22;3136;48.788;9.772;2024-01-30T03:12:24;-1.60;1.00
6206;DHT22;3136;48.788;9.772;2024-01-30T03:14:49;-1.60;1.00
6206;DHT22;3136;48.788;9.772;2024-01-30T03:17:15;-1.60;1.00
6206;DHT22;3136;48.788;9.772;2024-01-30T03:19:41;-1.70;1.00
6206;DHT22;3136;48.788;9.772;2024-01-30T03:22:07;-1.70;1.00
6206;DHT22;3136;48.788;9.772;2024-01-30T03:24:32;-1.70;1.00
6206;DHT22;3136;48.788;9.772;2024-01-30T03:26:58;-1.80;1.00
6206;DHT22;3136;48.788;9.772;2024-01-30T03:29:23;-1.80;1.00
6206;DHT22;3136;48.788;9.772;2024-01-30T03:31:49;-2.50;1.00
6206;DHT22;3136;48.788;9.772;2024-01-30T03:34:14;-1.80;1.00
6206;DHT22;3136;48.788;9.772;2024-01-30T03:36:40;-1.80;1.00
6206;DHT22;3136;48.788;9.772;2024-01-30T03:39:06;-1.80;1.00
6206;DHT22;3136;48.788;9.772;2024-01-30T03:41:31;-1.00;1.00
6206;DHT22;3136;48.788;9.772;2024-01-30T03:43:57;-1.80;1.00
6206;DHT22;3136;48.788;9.772;2024-01-30T03:46:23;-1.80;1.00
6206;DHT22;3136;48.788;9.772;2024-01-30T03:48:48;-1.70;1.00
6206;DHT22;3136;48.788;9.772;2024-01-30T03:51:14;-1.80;1.00
6206;DHT22;3136;48.788;9.772;2024-01-30T03:53:43;-1.80;1.00
6206;DHT22;3136;48.788;9.772;2024-01-30T03:56:10;-1.80;1.00
6206;DHT22;3136;48.788;9.772;2024-01-30T03:58:36;-1.80;1.00
6206;DHT22;3136;48.788;9.772;2024-01-30T04:01:01;-1.90;1.00
6206;DHT22;3136;48.788;9.772;2024-01-30T04:03:27;-1.90;1.00
6206;DHT22;3136;48.788;9.772;2024-01-30T04:05:53;-1.90;1.00
6206;DHT22;3136;48.788;9.772;2024-01-30T04:08:18;-1.90;1.00
6206;DHT22;3136;48.788;9.772;2024-01-30T04:10:44;-1.80;1.00
6206;DHT22;3136;48.788;9.772;2024-01-30T04:13:10;-1.80;1.00
6206;DHT22;3136;48.788;9.772;2024-01-30T04:15:35;-1.80;1.00
6206;DHT22;3136;48.788;9.772;2024-01-30T04:18:01;-1.70;1.00
6206;DHT22;3136;48.788;9.772;2024-01-30T04:20:26;-1.80;1.00
6206;DHT22;3136;48.788;9.772;2024-01-30T04:22:52;-1.80;1.00
6206;DHT22;3136;48.788;9.772;2024-01-30T04:25:18;-1.80;1.00
6206;DHT22;3136;48.788;9.772;2024-01-30T04:27:43;-1.90;1.00
6206;DHT22;3136;48.788;9.772;2024-01-30T04:30:09;-1.80;1.00
6206;DHT22;3136;48.788;9.772;2024-01-30T04:32:36;-1.90;1.00
6206;DHT22;3136;48.788;9.772;2024-01-30T04:35:02;-1.80;1.00
6206;DHT22;3136;48.788;9.772;2024-01-30T04:37:28;-1.90;1.00
6206;DHT22;3136;48.788;9.772;2024-01-30T04:39:53;-1.90;1.00
6206;DHT22;3136;48.788;9.772;2024-01-30T04:42:19;-1.90;1.00
6206;DHT22;3136;48.788;9.772;2024-01-30T04:44:45;-1.90;1.00
6206;DHT22;3136;48.788;9.772;2024-01-30T04:47:10;-1.90;1.00
6206;DHT22;3136;48.788;9.772;2024-01-30T04:49:38;-1.90;1.00
6206;DHT22;3136;48.788;9.772;2024-01-30T04:52:05;-1.90;1.00
6206;DHT22;3136;48.788;9.772;2024-01-30T04:54:31;-1.90;1.00
6206;DHT22;3136;48.788;9.772;2024-01-30T04:56:57;-2.00;1.00
6206;DHT22;3136;48.788;9.772;2024-01-30T04:59:22;-2.00;1.00
6206;DHT22;3136;48.788;9.772;2024-01-30T05:01:48;-2.00;1.00
6206;DHT22;3136;48.788;9.772;2024-01-30T05:04:13;-2.00;1.00
6206;DHT22;3136;48.788;9.772;2024-01-30T05:06:39;-2.00;1.00
6206;DHT22;3136;48.788;9.772;2024-01-30T05:09:04;-2.00;1.00
6206;DHT22;3136;48.788;9.772;2024-01-30T05:11:30;-2.00;1.00
6206;DHT22;3136;48.788;9.772;2024-01-30T05:13:56;-2.00;1.00
6206;DHT22;3136;48.788;9.772;2024-01-30T05:16:22;-2.00;1.00
6206;DHT22;3136;48.788;9.772;2024-01-30T05:18:47;-2.00;1.00
6206;DHT22;3136;48.788;9.772;2024-01-30T05:21:13;-2.00;1.00
6206;DHT22;3136;48.788;9.772;2024-01-30T05:23:39;-2.00;1.00
6206;DHT22;3136;48.788;9.772;2024-01-30T05:26:05;-2.00;1.00
6206;DHT22;3136;48.788;9.772;2024-01-30T05:28:31;-2.00;1.00
6206;DHT22;3136;48.788;9.772;2024-01-30T05:30:57;-2.00;1.00
6206;DHT22;3136;48.788;9.772;2024-01-30T05:33:22;-2.00;1.00
6206;DHT22;3136;48.788;9.772;2024-01-30T05:35:48;-1.90;1.00
6206;DHT22;3136;48.788;9.772;2024-01-30T05:38:15;-1.90;1.00
6206;DHT22;3136;48.788;9.772;2024-01-30T05:40:41;-1.90;1.00
6206;DHT22;3136;48.788;9.772;2024-01-30T05:43:06;-1.90;1.00
6206;DHT22;3136;48.788;9.772;2024-01-30T05:45:33;-1.90;1.00
6206;DHT22;3136;48.788;9.772;2024-01-30T05:47:59;-1.90;1.00
6206;DHT22;3136;48.788;9.772;2024-01-30T05:50:25;-2.00;1.00
6206;DHT22;3136;48.788;9.772;2024-01-30T05:52:51;-2.00;1.00
6206;DHT22;3136;48.788;9.772;2024-01-30T05:55:17;-2.00;1.00
6206;DHT22;3136;48.788;9.772;2024-01-30T05:57:43;-2.00;1.00
6206;DHT22;3136;48.788;9.772;2024-01-30T06:00:08;-2.00;1.00
6206;DHT22;3136;48.788;9.772;2024-01-30T06:02:34;-2.00;1.00
6206;DHT22;3136;48.788;9.772;2024-01-30T06:04:59;-2.00;1.00
6206;DHT22;3136;48.788;9.772;2024-01-30T06:07:25;-2.00;1.00
6206;DHT22;3136;48.788;9.772;2024-01-30T06:09:51;-2.00;1.00
6206;DHT22;3136;48.788;9.772;2024-01-30T06:12:16;-1.90;1.00
6206;DHT22;3136;48.788;9.772;2024-01-30T06:14:42;-2.00;1.00
6206;DHT22;3136;48.788;9.772;2024-01-30T06:17:10;-1.90;1.00
6206;DHT22;3136;48.788;9.772;2024-01-30T06:19:37;-1.90;1.00
6206;DHT22;3136;48.788;9.772;2024-01-30T06:22:04;-1.90;1.00
6206;DHT22;3136;48.788;9.772;2024-01-30T06:24:29;-1.90;1.00
6206;DHT22;3136;48.788;9.772;2024-01-30T06:26:55;-1.90;1.00
6206;DHT22;3136;48.788;9.772;2024-01-30T06:29:21;-1.90;1.00
6206;DHT22;3136;48.788;9.772;2024-01-30T06:31:46;-1.90;1.00
6206;DHT22;3136;48.788;9.772;2024-01-30T06:34:12;-1.90;1.00
6206;DHT22;3136;48.788;9.772;2024-01-30T06:36:38;-1.90;1.00
6206;DHT22;3136;48.788;9.772;2024-01-30T06:39:04;-1.90;1.00
6206;DHT22;3136;48.788;9.772;2024-01-30T06:41:29;-1.90;1.00
6206;DHT22;3136;48.788;9.772;2024-01-30T06:43:56;-1.90;1.00
6206;DHT22;3136;48.788;9.772;2024-01-30T06:46:21;-1.90;1.00
6206;DHT22;3136;48.788;9.772;2024-01-30T06:48:47;-1.80;1.00
6206;DHT22;3136;48.788;9.772;2024-01-30T06:51:13;-1.80;1.00
6206;DHT22;3136;48.788;9.772;2024-01-30T06:53:38;-1.80;1.00
6206;DHT22;3136;48.788;9.772;2024-01-30T06:56:04;-1.80;1.00
6206;DHT22;3136;48.788;9.772;2024-01-30T06:58:30;-1.80;1.00
6206;DHT22;3136;48.788;9.772;2024-01-30T07:00:56;-1.80;1.00
6206;DHT22;3136;48.788;9.772;2024-01-30T07:03:22;-1.80;1.00
6206;DHT22;3136;48.788;9.772;2024-01-30T07:05:47;-1.80;1.00
6206;DHT22;3136;48.788;9.772;2024-01-30T07:08:13;-1.80;1.00
6206;DHT22;3136;48.788;9.772;2024-01-30T07:10:38;-1.80;1.00
6206;DHT22;3136;48.788;9.772;2024-01-30T07:13:04;-1.80;1.00
6206;DHT22;3136;48.788;9.772;2024-01-30T07:15:31;-1.80;1.00
6206;DHT22;3136;48.788;9.772;2024-01-30T07:17:56;-1.80;1.00
6206;DHT22;3136;48.788;9.772;2024-01-30T07:20:22;-1.70;1.00
6206;DHT22;3136;48.788;9.772;2024-01-30T07:22:48;-1.70;1.00
6206;DHT22;3136;48.788;9.772;2024-01-30T07:25:13;-1.70;1.00
6206;DHT22;3136;48.788;9.772;2024-01-30T07:27:39;-1.70;1.00
6206;DHT22;3136;48.788;9.772;2024-01-30T07:30:05;-1.60;1.00
6206;DHT22;3136;48.788;9.772;2024-01-30T07:32:31;-1.50;1.00
6206;DHT22;3136;48.788;9.772;2024-01-30T07:34:57;-1.50;1.00
6206;DHT22;3136;48.788;9.772;2024-01-30T07:37:22;-1.40;1.00
6206;DHT22;3136;48.788;9.772;2024-01-30T07:39:48;-1.30;1.00
6206;DHT22;3136;48.788;9.772;2024-01-30T07:42:14;-1.20;1.00
6206;DHT22;3136;48.788;9.772;2024-01-30T07:44:39;-1.20;1.00
6206;DHT22;3136;48.788;9.772;2024-01-30T07:47:05;-1.10;1.00
6206;DHT22;3136;48.788;9.772;2024-01-30T07:49:34;-1.00;1.00
6206;DHT22;3136;48.788;9.772;2024-01-30T07:52:00;-1.00;1.00
6206;DHT22;3136;48.788;9.772;2024-01-30T07:54:25;-0.90;1.00
6206;DHT22;3136;48.788;9.772;2024-01-30T07:56:51;-0.80;1.00
6206;DHT22;3136;48.788;9.772;2024-01-30T07:59:16;-0.80;1.00
6206;DHT22;3136;48.788;9.772;2024-01-30T08:01:42;-0.70;1.00
6206;DHT22;3136;48.788;9.772;2024-01-30T08:04:07;-0.60;1.00
6206;DHT22;3136;48.788;9.772;2024-01-30T08:06:33;-0.60;1.00
6206;DHT22;3136;48.788;9.772;2024-01-30T08:08:59;-0.50;1.00
6206;DHT22;3136;48.788;9.772;2024-01-30T08:11:24;-0.50;1.00
6206;DHT22;3136;48.788;9.772;2024-01-30T08:13:52;-0.40;1.00
6206;DHT22;3136;48.788;9.772;2024-01-30T08:16:18;-0.40;1.00
6206;DHT22;3136;48.788;9.772;2024-01-30T08:18:43;-0.30;1.00
6206;DHT22;3136;48.788;9.772;2024-01-30T08:21:11;-0.20;1.00
6206;DHT22;3136;48.788;9.772;2024-01-30T08:23:38;-0.20;1.00
6206;DHT22;3136;48.788;9.772;2024-01-30T08:26:04;-0.10;1.00
6206;DHT22;3136;48.788;9.772;2024-01-30T08:28:29;0.00;1.00
6206;DHT22;3136;48.788;9.772;2024-01-30T08:30:55;0.10;1.00
6206;DHT22;3136;48.788;9.772;2024-01-30T08:33:21;0.20;1.00
6206;DHT22;3136;48.788;9.772;2024-01-30T08:35:46;0.20;1.00
6206;DHT22;3136;48.788;9.772;2024-01-30T08:38:12;0.30;1.00
6206;DHT22;3136;48.788;9.772;2024-01-30T08:40:38;0.30;1.00
6206;DHT22;3136;48.788;9.772;2024-01-30T08:43:03;0.40;1.00
6206;DHT22;3136;48.788;9.772;2024-01-30T08:45:29;0.40;1.00
6206;DHT22;3136;48.788;9.772;2024-01-30T08:47:56;0.50;1.00
6206;DHT22;3136;48.788;9.772;2024-01-30T08:50:21;0.60;1.00
6206;DHT22;3136;48.788;9.772;2024-01-30T08:52:47;0.60;1.00
6206;DHT22;3136;48.788;9.772;2024-01-30T08:55:13;0.70;1.00
6206;DHT22;3136;48.788;9.772;2024-01-30T08:57:38;0.80;1.00
6206;DHT22;3136;48.788;9.772;2024-01-30T09:00:04;0.80;1.00
6206;DHT22;3136;48.788;9.772;2024-01-30T09:02:34;0.90;1.00
6206;DHT22;3136;48.788;9.772;2024-01-30T09:05:00;1.00;1.00
6206;DHT22;3136;48.788;9.772;2024-01-30T09:07:25;1.10;1.00
6206;DHT22;3136;48.788;9.772;2024-01-30T09:09:51;1.20;1.00
6206;DHT22;3136;48.788;9.772;2024-01-30T09:12:16;1.40;1.00
6206;DHT22;3136;48.788;9.772;2024-01-30T09:14:42;1.50;1.00
6206;DHT22;3136;48.788;9.772;2024-01-30T09:17:07;1.60;3.10
6206;DHT22;3136;48.788;9.772;2024-01-30T09:19:33;1.80;6.30
6206;DHT22;3136;48.788;9.772;2024-01-30T09:21:59;1.90;8.80
6206;DHT22;3136;48.788;9.772;2024-01-30T09:24:26;2.10;10.90
6206;DHT22;3136;48.788;9.772;2024-01-30T09:26:52;2.20;13.20
6206;DHT22;3136;48.788;9.772;2024-01-30T09:29:17;2.40;15.90
6206;DHT22;3136;48.788;9.772;2024-01-30T09:31:44;2.50;15.70
6206;DHT22;3136;48.788;9.772;2024-01-30T09:34:10;2.60;14.30
6206;DHT22;3136;48.788;9.772;2024-01-30T09:36:36;2.80;15.80
6206;DHT22;3136;48.788;9.772;2024-01-30T09:39:01;3.00;18.60
6206;DHT22;3136;48.788;9.772;2024-01-30T09:41:27;3.20;20.20
6206;DHT22;3136;48.788;9.772;2024-01-30T09:43:54;3.30;21.10
6206;DHT22;3136;48.788;9.772;2024-01-30T09:46:26;3.40;16.80
6206;DHT22;3136;48.788;9.772;2024-01-30T09:48:55;3.50;11.50
6206;DHT22;3136;48.788;9.772;2024-01-30T09:51:23;3.60;3.70
6206;DHT22;3136;48.788;9.772;2024-01-30T09:53:49;3.70;1.00
6206;DHT22;3136;48.788;9.772;2024-01-30T09:56:15;3.80;1.00
6206;DHT22;3136;48.788;9.772;2024-01-30T09:58:42;4.00;1.00
6206;DHT22;3136;48.788;9.772;2024-01-30T10:01:07;4.10;1.00
6206;DHT22;3136;48.788;9.772;2024-01-30T10:03:33;4.20;1.00
6206;DHT22;3136;48.788;9.772;2024-01-30T10:05:59;4.50;1.00
6206;DHT22;3136;48.788;9.772;2024-01-30T10:08:26;4.90;1.00
6206;DHT22;3136;48.788;9.772;2024-01-30T10:10:52;5.30;1.00
6206;DHT22;3136;48.788;9.772;2024-01-30T10:13:18;5.80;1.00
6206;DHT22;3136;48.788;9.772;2024-01-30T10:15:44;6.30;1.00
6206;DHT22;3136;48.788;9.772;2024-01-30T10:18:10;6.70;1.00
6206;DHT22;3136;48.788;9.772;2024-01-30T10:20:36;7.10;99.90
6206;DHT22;3136;48.788;9.772;2024-01-30T10:23:02;7.20;1.00
6206;DHT22;3136;48.788;9.772;2024-01-30T10:25:28;7.10;67.10
6206;DHT22;3136;48.788;9.772;2024-01-30T10:27:54;7.10;1.00
6206;DHT22;3136;48.788;9.772;2024-01-30T10:30:23;7.20;60.70
6206;DHT22;3136;48.788;9.772;2024-01-30T10:32:49;7.20;1.00
6206;DHT22;3136;48.788;9.772;2024-01-30T10:35:15;7.10;1.00
6206;DHT22;3136;48.788;9.772;2024-01-30T10:37:47;7.30;99.90
6206;DHT22;3136;48.788;9.772;2024-01-30T10:40:13;7.30;99.20
6206;DHT22;3136;48.788;9.772;2024-01-30T10:42:43;7.40;1.00
6206;DHT22;3136;48.788;9.772;2024-01-30T10:45:10;7.60;99.90
6206;DHT22;3136;48.788;9.772;2024-01-30T10:47:48;7.60;99.90
6206;DHT22;3136;48.788;9.772;2024-01-30T10:50:14;7.80;99.90
6206;DHT22;3136;48.788;9.772;2024-01-30T10:52:41;8.10;99.90
6206;DHT22;3136;48.788;9.772;2024-01-30T10:55:07;8.50;18.10
6206;DHT22;3136;48.788;9.772;2024-01-30T10:57:37;8.70;1.00
6206;DHT22;3136;48.788;9.772;2024-01-30T11:00:11;8.80;1.00
6206;DHT22;3136;48.788;9.772;2024-01-30T11:02:45;9.00;1.00
6206;DHT22;3136;48.788;9.772;2024-01-30T11:05:11;9.10;1.00
6206;DHT22;3136;48.788;9.772;2024-01-30T11:07:39;9.00;1.00
6206;DHT22;3136;48.788;9.772;2024-01-30T11:10:05;9.10;1.00
6206;DHT22;3136;48.788;9.772;2024-01-30T11:12:37;9.00;1.00
6206;DHT22;3136;48.788;9.772;2024-01-30T11:15:09;8.70;1.00
6206;DHT22;3136;48.788;9.772;2024-01-30T11:20:20;8.40;1.00
6206;DHT22;3136;48.788;9.772;2024-01-30T11:22:47;8.50;1.00
6206;DHT22;3136;48.788;9.772;2024-01-30T11:25:14;8.70;1.00
6206;DHT22;3136;48.788;9.772;2024-01-30T11:27:41;8.80;1.00
6206;DHT22;3136;48.788;9.772;2024-01-30T11:30:07;9.10;1.00
6206;DHT22;3136;48.788;9.772;2024-01-30T11:32:33;9.10;1.00
6206;DHT22;3136;48.788;9.772;2024-01-30T11:34:59;9.20;1.00
6206;DHT22;3136;48.788;9.772;2024-01-30T11:37:25;9.10;1.00
6206;DHT22;3136;48.788;9.772;2024-01-30T11:39:53;8.90;1.00
6206;DHT22;3136;48.788;9.772;2024-01-30T11:42:19;8.80;1.00
6206;DHT22;3136;48.788;9.772;2024-01-30T11:44:48;8.80;1.00
6206;DHT22;3136;48.788;9.772;2024-01-30T11:47:14;8.90;1.00
6206;DHT22;3136;48.788;9.772;2024-01-30T11:49:40;9.00;1.00
6206;DHT22;3136;48.788;9.772;2024-01-30T11:52:06;9.10;1.00
6206;DHT22;3136;48.788;9.772;2024-01-30T11:54:32;9.20;1.00
6206;DHT22;3136;48.788;9.772;2024-01-30T11:56:57;9.20;1.00
6206;DHT22;3136;48.788;9.772;2024-01-30T11:59:23;9.20;1.00
6206;DHT22;3136;48.788;9.772;2024-01-30T12:01:49;9.30;1.00
6206;DHT22;3136;48.788;9.772;2024-01-30T12:04:16;9.40;1.00
6206;DHT22;3136;48.788;9.772;2024-01-30T12:06:42;9.60;1.00
6206;DHT22;3136;48.788;9.772;2024-01-30T12:09:09;9.80;1.00
6206;DHT22;3136;48.788;9.772;2024-01-30T12:11:48;10.00;1.00
6206;DHT22;3136;48.788;9.772;2024-01-30T12:14:15;10.20;1.00
6206;DHT22;3136;48.788;9.772;2024-01-30T12:16:41;10.20;1.00
6206;DHT22;3136;48.788;9.772;2024-01-30T12:19:07;10.40;1.00
6206;DHT22;3136;48.788;9.772;2024-01-30T12:21:33;10.60;1.00
6206;DHT22;3136;48.788;9.772;2024-01-30T12:24:00;10.70;1.00
6206;DHT22;3136;48.788;9.772;2024-01-30T12:26:26;10.80;1.00
6206;DHT22;3136;48.788;9.772;2024-01-30T12:28:54;11.00;99.90
6206;DHT22;3136;48.788;9.772;2024-01-30T12:31:27;11.00;99.90
6206;DHT22;3136;48.788;9.772;2024-01-30T12:33:53;10.90;99.90
6206;DHT22;3136;48.788;9.772;2024-01-30T12:36:19;11.00;99.90
6206;DHT22;3136;48.788;9.772;2024-01-30T12:38:44;11.10;99.90
6206;DHT22;3136;48.788;9.772;2024-01-30T12:41:10;11.20;99.90
6206;DHT22;3136;48.788;9.772;2024-01-30T12:43:36;11.30;99.90
6206;DHT22;3136;48.788;9.772;2024-01-30T12:46:03;11.40;99.90
6206;DHT22;3136;48.788;9.772;2024-01-30T12:48:28;11.50;99.90
6206;DHT22;3136;48.788;9.772;2024-01-30T12:50:56;11.40;99.90
6206;DHT22;3136;48.788;9.772;2024-01-30T12:53:21;11.30;99.90
6206;DHT22;3136;48.788;9.772;2024-01-30T12:55:47;12.10;99.90
6206;DHT22;3136;48.788;9.772;2024-01-30T12:58:13;11.30;99.90
6206;DHT22;3136;48.788;9.772;2024-01-30T13:00:38;11.20;99.90
6206;DHT22;3136;48.788;9.772;2024-01-30T13:03:04;11.30;99.90
6206;DHT22;3136;48.788;9.772;2024-01-30T13:05:29;11.30;99.90
6206;DHT22;3136;48.788;9.772;2024-01-30T13:07:55;11.40;99.90
6206;DHT22;3136;48.788;9.772;2024-01-30T13:10:22;11.50;99.90
6206;DHT22;3136;48.788;9.772;2024-01-30T13:12:48;11.40;99.90
6206;DHT22;3136;48.788;9.772;2024-01-30T13:15:14;11.50;99.90
6206;DHT22;3136;48.788;9.772;2024-01-30T13:17:40;11.60;99.90
6206;DHT22;3136;48.788;9.772;2024-01-30T13:20:08;11.60;99.90
6206;DHT22;3136;48.788;9.772;2024-01-30T13:22:33;11.60;99.90
6206;DHT22;3136;48.788;9.772;2024-01-30T13:24:59;11.50;99.90
6206;DHT22;3136;48.788;9.772;2024-01-30T13:27:25;11.40;99.90
6206;DHT22;3136;48.788;9.772;2024-01-30T13:29:50;11.50;99.90
6206;DHT22;3136;48.788;9.772;2024-01-30T13:32:16;11.60;99.90
6206;DHT22;3136;48.788;9.772;2024-01-30T13:34:41;12.00;99.90
6206;DHT22;3136;48.788;9.772;2024-01-30T13:37:08;12.10;99.90
6206;DHT22;3136;48.788;9.772;2024-01-30T13:39:34;12.10;99.90
6206;DHT22;3136;48.788;9.772;2024-01-30T13:41:59;11.80;99.90
6206;DHT22;3136;48.788;9.772;2024-01-30T13:44:25;12.50;99.90
6206;DHT22;3136;48.788;9.772;2024-01-30T13:46:50;11.50;99.90
6206;DHT22;3136;48.788;9.772;2024-01-30T13:49:16;11.50;99.90
6206;DHT22;3136;48.788;9.772;2024-01-30T13:51:42;11.50;99.90
6206;DHT22;3136;48.788;9.772;2024-01-30T13:54:07;11.50;99.90
6206;DHT22;3136;48.788;9.772;2024-01-30T13:56:33;11.80;99.90
6206;DHT22;3136;48.788;9.772;2024-01-30T13:58:59;12.00;99.90
6206;DHT22;3136;48.788;9.772;2024-01-30T14:01:26;12.30;99.90
6206;DHT22;3136;48.788;9.772;2024-01-30T14:03:52;12.30;99.90
6206;DHT22;3136;48.788;9.772;2024-01-30T14:06:18;12.10;99.90
6206;DHT22;3136;48.788;9.772;2024-01-30T14:08:43;12.50;99.90
6206;DHT22;3136;48.788;9.772;2024-01-30T14:11:09;11.70;99.90
6206;DHT22;3136;48.788;9.772;2024-01-30T14:13:35;11.30;99.90
6206;DHT22;3136;48.788;9.772;2024-01-30T14:16:00;11.00;99.90
6206;DHT22;3136;48.788;9.772;2024-01-30T14:18:26;10.80;99.90
6206;DHT22;3136;48.788;9.772;2024-01-30T14:20:52;10.60;99.90
6206;DHT22;3136;48.788;9.772;2024-01-30T14:23:18;10.50;99.90
6206;DHT22;3136;48.788;9.772;2024-01-30T14:25:43;10.40;99.90
6206;DHT22;3136;48.788;9.772;2024-01-30T14:28:10;10.30;99.90
6206;DHT22;3136;48.788;9.772;2024-01-30T14:30:35;10.20;99.90
6206;DHT22;3136;48.788;9.772;2024-01-30T14:33:01;10.10;99.90
6206;DHT22;3136;48.788;9.772;2024-01-30T14:35:27;10.00;99.90
6206;DHT22;3136;48.788;9.772;2024-01-30T14:37:53;10.00;99.90
6206;DHT22;3136;48.788;9.772;2024-01-30T14:40:18;9.80;99.90
6206;DHT22;3136;48.788;9.772;2024-01-30T14:42:45;9.70;99.90
6206;DHT22;3136;48.788;9.772;2024-01-30T14:45:14;9.60;99.90
6206;DHT22;3136;48.788;9.772;2024-01-30T14:47:39;9.40;99.90
6206;DHT22;3136;48.788;9.772;2024-01-30T14:50:06;9.30;1.00
6206;DHT22;3136;48.788;9.772;2024-01-30T14:52:31;9.10;1.00
6206;DHT22;3136;48.788;9.772;2024-01-30T14:54:57;8.90;1.00
6206;DHT22;3136;48.788;9.772;2024-01-30T14:57:24;8.80;1.00
6206;DHT22;3136;48.788;9.772;2024-01-30T14:59:50;8.70;1.00
6206;DHT22;3136;48.788;9.772;2024-01-30T15:02:15;8.60;1.00
6206;DHT22;3136;48.788;9.772;2024-01-30T15:04:41;8.50;1.00
6206;DHT22;3136;48.788;9.772;2024-01-30T15:07:07;8.30;1.00
6206;DHT22;3136;48.788;9.772;2024-01-30T15:09:32;8.20;11.60
6206;DHT22;3136;48.788;9.772;2024-01-30T15:11:58;8.20;61.50
6206;DHT22;3136;48.788;9.772;2024-01-30T15:14:24;8.10;99.90
6206;DHT22;3136;48.788;9.772;2024-01-30T15:16:49;8.00;99.90
6206;DHT22;3136;48.788;9.772;2024-01-30T15:19:15;7.90;99.90
6206;DHT22;3136;48.788;9.772;2024-01-30T15:21:41;7.80;99.90
6206;DHT22;3136;48.788;9.772;2024-01-30T15:24:06;7.70;99.90
6206;DHT22;3136;48.788;9.772;2024-01-30T15:26:32;7.60;99.90
6206;DHT22;3136;48.788;9.772;2024-01-30T15:28:57;7.50;1.00
6206;DHT22;3136;48.788;9.772;2024-01-30T15:31:23;7.40;1.00
6206;DHT22;3136;48.788;9.772;2024-01-30T15:33:49;7.30;99.90
6206;DHT22;3136;48.788;9.772;2024-01-30T15:36:14;7.20;99.90
6206;DHT22;3136;48.788;9.772;2024-01-30T15:38:41;7.10;99.90
6206;DHT22;3136;48.788;9.772;2024-01-30T15:41:07;7.00;1.00
6206;DHT22;3136;48.788;9.772;2024-01-30T15:43:32;6.90;1.00
6206;DHT22;3136;48.788;9.772;2024-01-30T15:46:02;6.80;1.00
6206;DHT22;3136;48.788;9.772;2024-01-30T15:48:27;6.80;1.00
6206;DHT22;3136;48.788;9.772;2024-01-30T15:50:53;6.70;70.80
6206;DHT22;3136;48.788;9.772;2024-01-30T15:53:22;6.60;99.90
6206;DHT22;3136;48.788;9.772;2024-01-30T15:55:47;6.60;99.90
6206;DHT22;3136;48.788;9.772;2024-01-30T15:58:13;6.40;99.90
6206;DHT22;3136;48.788;9.772;2024-01-30T16:00:39;6.30;99.90
6206;DHT22;3136;48.788;9.772;2024-01-30T16:03:05;6.20;1.00
6206;DHT22;3136;48.788;9.772;2024-01-30T16:05:31;6.20;1.00
6206;DHT22;3136;48.788;9.772;2024-01-30T16:07:56;6.10;99.90
6206;DHT22;3136;48.788;9.772;2024-01-30T16:10:22;6.00;99.90
6206;DHT22;3136;48.788;9.772;2024-01-30T16:12:47;5.90;1.00